createdAt,value
2018-05-10T00:17:02.219Z,22.23
2018-05-10T00:37:31.311Z,27.40
2018-05-10T00:57:58.295Z,27.37
2018-05-10T01:18:28.228Z,26.43
2018-05-10T01:38:55.288Z,19.37
2018-05-10T01:41:25.824Z,17.43
2018-05-10T02:01:52.896Z,16.90
2018-05-10T02:22:20.983Z,20.20
2018-05-10T02:42:48.967Z,22.50
2018-05-10T03:03:15.522Z,20.27
2018-05-10T03:23:42.786Z,21.97
2018-05-10T03:44:10.467Z,12.27
2018-05-10T04:25:32.861Z,16.23
2018-05-10T04:46:00.547Z,11.30
2018-05-10T04:57:29.088Z,15.30
2018-05-10T05:17:56.053Z,12.23
2018-05-10T05:38:23.118Z,13.50
2018-05-10T05:58:49.871Z,25.07
2018-05-10T06:19:16.561Z,24.20
2018-05-10T07:00:20.076Z,9.07
2018-05-10T07:20:46.586Z,5.30
2018-05-10T07:41:12.991Z,15.03
2018-05-10T08:01:39.134Z,10.30
2018-05-10T08:22:05.166Z,10.17
2018-05-10T08:42:31.210Z,15.60
2018-05-10T09:02:57.247Z,16.20
2018-05-10T09:23:23.810Z,12.43
2018-05-10T09:43:50.050Z,14.37
2018-05-10T10:04:16.196Z,13.70
2018-05-10T10:24:45.821Z,9.33
2018-05-10T10:45:12.792Z,9.43
2018-05-10T11:05:38.621Z,9.40
2018-05-10T18:13:42.884Z,6.70
2018-05-10T18:34:12.462Z,13.10
2018-05-10T18:54:42.575Z,14.77
2018-05-10T19:15:14.713Z,18.63
2018-05-10T19:35:46.662Z,15.93
2018-05-10T19:56:17.414Z,16.33
2018-05-10T20:16:46.726Z,22.30
2018-05-10T20:37:16.138Z,17.63
2018-05-10T20:48:43.361Z,10.77
2018-05-10T21:29:56.827Z,6.60
2018-05-10T21:50:29.184Z,13.00
2018-05-10T22:10:59.171Z,8.50
2018-05-10T22:31:28.697Z,5.63
2018-05-10T22:51:58.243Z,5.23
2018-05-10T23:12:31.790Z,14.70
2018-05-10T23:27:06.765Z,7.20
2018-05-10T23:29:37.826Z,10.83
2018-05-10T23:50:08.458Z,10.07
